createdAt,value
2017-03-13T00:00:25.658Z,1019.53
2017-03-13T00:01:06.228Z,1019.57
2017-03-13T00:01:46.816Z,1019.55
2017-03-13T00:02:27.458Z,1019.58
2017-03-13T00:03:08.044Z,1019.52
2017-03-13T00:03:48.638Z,1019.55
2017-03-13T00:04:29.233Z,1019.57
2017-03-13T00:05:09.831Z,1019.57
2017-03-13T00:05:50.433Z,1019.54
2017-03-13T00:06:31.001Z,1019.56
2017-03-13T00:07:11.585Z,1019.55
2017-03-13T00:07:52.186Z,1019.59
2017-03-13T00:08:32.781Z,1019.56
2017-03-13T00:09:13.366Z,1019.61
2017-03-13T00:09:53.945Z,1019.61
2017-03-13T00:10:34.518Z,1019.6
2017-03-13T00:11:15.090Z,1019.58
2017-03-13T00:11:55.679Z,1019.6
2017-03-13T00:12:36.249Z,1019.62
2017-03-13T00:13:16.841Z,1019.64
2017-03-13T00:13:57.447Z,1019.64
2017-03-13T00:14:38.039Z,1019.63
2017-03-13T00:15:18.632Z,1019.6
2017-03-13T00:15:59.232Z,1019.62
2017-03-13T00:16:39.820Z,1019.63
2017-03-13T00:17:20.414Z,1019.65
2017-03-13T00:18:01.000Z,1019.66
2017-03-13T00:18:41.620Z,1019.63
2017-03-13T00:19:22.218Z,1019.64
2017-03-13T00:20:02.827Z,1019.61
2017-03-13T00:20:43.427Z,1019.61
2017-03-13T00:21:24.018Z,1019.6
2017-03-13T00:22:04.628Z,1019.64
2017-03-13T00:22:45.237Z,1019.63
2017-03-13T00:23:25.847Z,1019.64
2017-03-13T00:24:06.441Z,1019.64
2017-03-13T00:24:47.056Z,1019.65
2017-03-13T00:25:27.638Z,1019.64
2017-03-13T00:26:08.216Z,1019.67
2017-03-13T00:26:48.808Z,1019.65
2017-03-13T00:27:29.401Z,1019.67
2017-03-13T00:28:09.960Z,1019.66
2017-03-13T00:28:50.536Z,1019.67
2017-03-13T00:29:31.150Z,1019.65
2017-03-13T00:30:11.755Z,1019.66
2017-03-13T00:30:52.316Z,1019.67
2017-03-13T00:31:32.902Z,1019.64
2017-03-13T00:32:13.501Z,1019.67
2017-03-13T00:32:54.135Z,1019.69
2017-03-13T00:33:34.703Z,1019.66
2017-03-13T00:34:15.276Z,1019.69
2017-03-13T00:34:55.862Z,1019.71
2017-03-13T00:35:36.460Z,1019.71
2017-03-13T00:36:17.075Z,1019.7
2017-03-13T00:36:57.672Z,1019.76
2017-03-13T00:37:38.278Z,1019.73
2017-03-13T00:38:18.887Z,1019.74
2017-03-13T00:38:59.471Z,1019.75
2017-03-13T00:39:40.052Z,1019.74
2017-03-13T00:40:20.633Z,1019.78
2017-03-13T00:41:01.209Z,1019.75
2017-03-13T00:41:41.791Z,1019.79
2017-03-13T00:42:22.375Z,1019.78
2017-03-13T00:43:02.962Z,1019.8
2017-03-13T00:43:43.548Z,1019.73
2017-03-13T00:44:24.129Z,1019.81
2017-03-13T00:45:04.701Z,1019.8
2017-03-13T00:45:45.301Z,1019.77
2017-03-13T00:46:25.891Z,1019.77
2017-03-13T00:47:06.471Z,1019.79
2017-03-13T00:47:47.071Z,1019.76
2017-03-13T00:48:27.677Z,1019.79
2017-03-13T00:49:08.259Z,1019.78
2017-03-13T00:49:48.847Z,1019.81
2017-03-13T00:50:29.411Z,1019.76
2017-03-13T00:51:09.969Z,1019.81
2017-03-13T00:51:50.530Z,1019.75
2017-03-13T00:52:31.115Z,1019.81
2017-03-13T00:53:11.702Z,1019.76
2017-03-13T00:53:52.279Z,1019.76
2017-03-13T00:54:32.844Z,1019.78
2017-03-13T00:55:13.423Z,1019.79
2017-03-13T00:55:54.018Z,1019.75
2017-03-13T00:56:34.609Z,1019.76
2017-03-13T00:57:15.218Z,1019.79
2017-03-13T00:57:55.777Z,1019.77
2017-03-13T00:58:36.378Z,1019.78
2017-03-13T00:59:16.980Z,1019.79
2017-03-13T00:59:57.562Z,1019.8
2017-03-13T01:00:38.164Z,1019.74
2017-03-13T01:01:18.775Z,1019.73
2017-03-13T01:01:59.351Z,1019.74
2017-03-13T01:02:39.980Z,1019.78
2017-03-13T01:03:20.648Z,1019.75
2017-03-13T01:04:01.267Z,1019.75
2017-03-13T01:04:41.877Z,1019.75
2017-03-13T01:05:22.475Z,1019.74
2017-03-13T01:06:03.065Z,1019.75
2017-03-13T01:06:43.658Z,1019.72
2017-03-13T01:07:24.285Z,1019.74
2017-03-13T01:08:04.859Z,1019.69
2017-03-13T01:08:45.497Z,1019.7
2017-03-13T01:09:26.086Z,1019.71
2017-03-13T01:10:06.701Z,1019.72
2017-03-13T01:10:47.283Z,1019.71
2017-03-13T01:11:27.872Z,1019.75
2017-03-13T01:12:08.453Z,1019.72
2017-03-13T01:12:49.046Z,1019.69
2017-03-13T01:13:29.693Z,1019.67
2017-03-13T01:14:10.324Z,1019.68
2017-03-13T01:14:50.940Z,1019.69
2017-03-13T01:15:31.558Z,1019.63
2017-03-13T01:16:12.172Z,1019.68
2017-03-13T01:16:52.737Z,1019.68
2017-03-13T01:17:33.328Z,1019.62
2017-03-13T01:18:13.919Z,1019.69
2017-03-13T01:18:54.517Z,1019.71
2017-03-13T01:19:35.127Z,1019.66
2017-03-13T01:20:15.723Z,1019.65
2017-03-13T01:20:56.306Z,1019.67
2017-03-13T01:21:36.928Z,1019.69
2017-03-13T01:22:17.507Z,1019.69
2017-03-13T01:22:58.116Z,1019.7
2017-03-13T01:23:38.688Z,1019.68
2017-03-13T01:24:19.273Z,1019.69
2017-03-13T01:24:59.866Z,1019.67
2017-03-13T01:25:40.443Z,1019.67
2017-03-13T01:26:21.046Z,1019.66
2017-03-13T01:27:01.630Z,1019.68
2017-03-13T01:27:42.221Z,1019.65
2017-03-13T01:28:22.839Z,1019.63
2017-03-13T01:29:03.444Z,1019.62
2017-03-13T01:29:44.016Z,1019.58
2017-03-13T01:30:24.602Z,1019.59
2017-03-13T01:31:05.214Z,1019.62
2017-03-13T01:31:45.795Z,1019.59
2017-03-13T01:32:26.392Z,1019.59
2017-03-13T01:33:06.976Z,1019.62
2017-03-13T01:33:47.615Z,1019.6
2017-03-13T01:34:28.209Z,1019.57
2017-03-13T01:35:08.851Z,1019.64
2017-03-13T01:35:49.449Z,1019.64
2017-03-13T01:36:30.064Z,1019.61
2017-03-13T01:37:10.655Z,1019.62
2017-03-13T01:37:51.274Z,1019.64
2017-03-13T01:38:31.860Z,1019.61
2017-03-13T01:39:12.473Z,1019.61
2017-03-13T01:39:53.064Z,1019.64
2017-03-13T01:40:33.679Z,1019.59
2017-03-13T01:41:14.285Z,1019.58
2017-03-13T01:41:54.881Z,1019.57
2017-03-13T01:42:35.498Z,1019.58
2017-03-13T01:43:16.087Z,1019.54
2017-03-13T01:43:56.675Z,1019.55
2017-03-13T01:44:37.292Z,1019.55
2017-03-13T01:45:17.879Z,1019.56
2017-03-13T01:45:58.468Z,1019.54
2017-03-13T01:46:39.088Z,1019.55
2017-03-13T01:47:19.690Z,1019.56
2017-03-13T01:48:00.285Z,1019.52
2017-03-13T01:48:40.883Z,1019.53
2017-03-13T01:49:21.538Z,1019.53
2017-03-13T01:50:02.102Z,1019.55
2017-03-13T01:50:42.684Z,1019.51
2017-03-13T01:51:23.296Z,1019.53
2017-03-13T01:52:03.906Z,1019.57
2017-03-13T01:52:44.527Z,1019.51
2017-03-13T01:53:25.191Z,1019.56
2017-03-13T01:54:05.809Z,1019.53
2017-03-13T01:54:46.408Z,1019.54
2017-03-13T01:55:27.003Z,1019.53
2017-03-13T01:56:07.657Z,1019.54
2017-03-13T01:56:48.366Z,1019.51
2017-03-13T01:57:28.998Z,1019.54
2017-03-13T01:58:09.620Z,1019.51
2017-03-13T01:58:50.250Z,1019.55
2017-03-13T01:59:30.868Z,1019.54
2017-03-13T02:00:11.484Z,1019.51
2017-03-13T02:00:52.095Z,1019.55
2017-03-13T02:01:32.686Z,1019.56
2017-03-13T02:02:13.280Z,1019.56
2017-03-13T02:02:53.855Z,1019.51
2017-03-13T02:03:34.440Z,1019.54
2017-03-13T02:04:15.037Z,1019.54
2017-03-13T02:04:55.649Z,1019.52
2017-03-13T02:05:36.244Z,1019.57
2017-03-13T02:06:16.846Z,1019.53
2017-03-13T02:06:57.426Z,1019.56
2017-03-13T02:07:38.053Z,1019.58
2017-03-13T02:08:18.646Z,1019.54
2017-03-13T02:08:59.261Z,1019.6
2017-03-13T02:09:39.861Z,1019.6
2017-03-13T02:10:20.461Z,1019.61
2017-03-13T02:11:01.099Z,1019.6
2017-03-13T02:11:41.793Z,1019.61
2017-03-13T02:12:22.414Z,1019.56
2017-03-13T02:13:03.020Z,1019.57
2017-03-13T02:13:43.623Z,1019.57
2017-03-13T02:14:24.228Z,1019.58
2017-03-13T02:15:04.854Z,1019.6
2017-03-13T02:15:45.499Z,1019.64
2017-03-13T02:16:26.084Z,1019.59
2017-03-13T02:17:06.680Z,1019.59
2017-03-13T02:17:47.283Z,1019.61
2017-03-13T02:18:27.878Z,1019.62
2017-03-13T02:19:08.484Z,1019.61
2017-03-13T02:19:49.143Z,1019.6
2017-03-13T02:20:29.737Z,1019.62
2017-03-13T02:21:10.349Z,1019.62
2017-03-13T02:21:50.951Z,1019.57
2017-03-13T02:22:31.549Z,1019.56
2017-03-13T02:23:12.166Z,1019.58
2017-03-13T02:23:52.755Z,1019.6
2017-03-13T02:24:33.339Z,1019.58
2017-03-13T02:25:13.928Z,1019.56
2017-03-13T02:25:54.515Z,1019.59
2017-03-13T02:26:35.109Z,1019.59
2017-03-13T02:27:15.711Z,1019.59
2017-03-13T02:27:56.315Z,1019.61
2017-03-13T02:28:36.904Z,1019.6
2017-03-13T02:29:17.506Z,1019.58
2017-03-13T02:29:58.087Z,1019.57
2017-03-13T02:30:38.669Z,1019.56
2017-03-13T02:31:19.270Z,1019.57
2017-03-13T02:31:59.842Z,1019.58
2017-03-13T02:32:40.433Z,1019.58
2017-03-13T02:33:21.030Z,1019.6
2017-03-13T02:34:01.637Z,1019.6
2017-03-13T02:34:42.235Z,1019.6
2017-03-13T02:35:22.844Z,1019.67
2017-03-13T02:36:03.422Z,1019.62
2017-03-13T02:36:44.012Z,1019.66
2017-03-13T02:37:24.611Z,1019.65
2017-03-13T02:38:05.210Z,1019.69
2017-03-13T02:38:45.797Z,1019.68
2017-03-13T02:39:26.381Z,1019.71
2017-03-13T02:40:06.980Z,1019.7
2017-03-13T02:40:47.587Z,1019.72
2017-03-13T02:41:28.179Z,1019.72
2017-03-13T02:42:08.784Z,1019.72
2017-03-13T02:42:49.371Z,1019.7
2017-03-13T02:43:29.972Z,1019.74
2017-03-13T02:44:10.568Z,1019.67
2017-03-13T02:44:51.182Z,1019.71
2017-03-13T02:45:31.813Z,1019.74
2017-03-13T02:46:12.381Z,1019.69
2017-03-13T02:46:52.971Z,1019.7
2017-03-13T02:47:33.563Z,1019.67
2017-03-13T02:48:14.144Z,1019.74
2017-03-13T02:48:54.760Z,1019.73
2017-03-13T02:49:35.376Z,1019.72
2017-03-13T02:50:15.988Z,1019.72
2017-03-13T02:50:56.555Z,1019.74
2017-03-13T02:51:37.172Z,1019.73
2017-03-13T02:52:17.761Z,1019.7
2017-03-13T02:52:58.366Z,1019.71
2017-03-13T02:53:38.960Z,1019.74
2017-03-13T02:54:19.582Z,1019.71
2017-03-13T02:55:00.190Z,1019.74
2017-03-13T02:55:40.793Z,1019.76
2017-03-13T02:56:21.400Z,1019.76
2017-03-13T02:57:02.025Z,1019.75
2017-03-13T02:57:42.661Z,1019.74
2017-03-13T02:58:23.259Z,1019.76
2017-03-13T02:59:03.945Z,1019.79
2017-03-13T02:59:44.543Z,1019.81
2017-03-13T03:00:25.130Z,1019.77
2017-03-13T03:01:05.703Z,1019.75
2017-03-13T03:01:46.330Z,1019.72
2017-03-13T03:02:26.900Z,1019.74
2017-03-13T03:03:07.498Z,1019.73
2017-03-13T03:03:48.076Z,1019.71
2017-03-13T03:04:28.649Z,1019.69
2017-03-13T03:05:09.245Z,1019.74
2017-03-13T03:05:49.831Z,1019.7
2017-03-13T03:06:30.492Z,1019.71
2017-03-13T03:07:11.112Z,1019.67
2017-03-13T03:07:51.722Z,1019.68
2017-03-13T03:08:32.302Z,1019.72
2017-03-13T03:09:12.895Z,1019.68
2017-03-13T03:09:53.552Z,1019.7
2017-03-13T03:10:34.163Z,1019.65
2017-03-13T03:11:14.754Z,1019.69
2017-03-13T03:11:55.352Z,1019.69
2017-03-13T03:12:35.992Z,1019.7
2017-03-13T03:13:16.567Z,1019.7
2017-03-13T03:13:57.161Z,1019.7
2017-03-13T03:14:37.742Z,1019.68
2017-03-13T03:15:18.320Z,1019.69
2017-03-13T03:15:58.910Z,1019.68
2017-03-13T03:16:39.492Z,1019.67
2017-03-13T03:17:20.099Z,1019.61
2017-03-13T03:18:00.665Z,1019.65
2017-03-13T03:18:41.274Z,1019.62
2017-03-13T03:19:21.870Z,1019.62
2017-03-13T03:20:02.484Z,1019.62
2017-03-13T03:20:43.074Z,1019.59
2017-03-13T03:21:23.652Z,1019.62
2017-03-13T03:22:04.255Z,1019.64
2017-03-13T03:22:44.860Z,1019.62
2017-03-13T03:23:25.443Z,1019.62
2017-03-13T03:24:06.032Z,1019.65
2017-03-13T03:24:46.637Z,1019.63
2017-03-13T03:25:27.249Z,1019.65
2017-03-13T03:26:07.845Z,1019.64
2017-03-13T03:26:48.452Z,1019.62
2017-03-13T03:27:29.055Z,1019.6
2017-03-13T03:28:09.656Z,1019.61
2017-03-13T03:28:50.263Z,1019.63
2017-03-13T03:29:30.833Z,1019.65
2017-03-13T03:30:11.441Z,1019.65
2017-03-13T03:30:52.072Z,1019.7
2017-03-13T03:31:32.665Z,1019.66
2017-03-13T03:32:13.248Z,1019.64
2017-03-13T03:32:53.857Z,1019.65
2017-03-13T03:33:34.483Z,1019.71
2017-03-13T03:34:15.065Z,1019.7
2017-03-13T03:34:55.684Z,1019.66
2017-03-13T03:35:36.315Z,1019.71
2017-03-13T03:36:16.933Z,1019.7
2017-03-13T03:36:57.515Z,1019.69
2017-03-13T03:37:38.092Z,1019.65
2017-03-13T03:38:18.707Z,1019.64
2017-03-13T03:38:59.350Z,1019.71
2017-03-13T03:39:39.923Z,1019.65
2017-03-13T03:40:20.543Z,1019.64
2017-03-13T03:41:01.125Z,1019.67
2017-03-13T03:41:41.819Z,1019.66
2017-03-13T03:42:22.388Z,1019.65
2017-03-13T03:43:02.984Z,1019.68
2017-03-13T03:43:43.591Z,1019.67
2017-03-13T03:44:24.148Z,1019.64
2017-03-13T03:45:04.732Z,1019.64
2017-03-13T03:45:45.350Z,1019.62
2017-03-13T03:46:25.942Z,1019.61
2017-03-13T03:47:06.549Z,1019.62
2017-03-13T03:47:47.150Z,1019.63
2017-03-13T03:48:27.776Z,1019.58
2017-03-13T03:49:08.400Z,1019.61
2017-03-13T03:49:48.985Z,1019.59
2017-03-13T03:50:29.574Z,1019.59
2017-03-13T03:51:10.170Z,1019.59
2017-03-13T03:51:50.779Z,1019.59
2017-03-13T03:52:31.374Z,1019.61
2017-03-13T03:53:11.961Z,1019.6
2017-03-13T03:53:52.572Z,1019.62
2017-03-13T03:54:33.184Z,1019.63
2017-03-13T03:55:13.789Z,1019.65
2017-03-13T03:55:54.384Z,1019.64
2017-03-13T03:56:34.969Z,1019.71
2017-03-13T03:57:15.636Z,1019.66
2017-03-13T03:57:56.220Z,1019.67
2017-03-13T03:58:36.849Z,1019.67
2017-03-13T03:59:17.427Z,1019.65
2017-03-13T03:59:58.001Z,1019.64
2017-03-13T04:00:38.600Z,1019.69
2017-03-13T04:01:19.200Z,1019.72
2017-03-13T04:01:59.785Z,1019.76
2017-03-13T04:02:40.386Z,1019.71
2017-03-13T04:03:20.963Z,1019.77
2017-03-13T04:04:01.582Z,1019.73
2017-03-13T04:04:42.174Z,1019.78
2017-03-13T04:05:22.760Z,1019.81
2017-03-13T04:06:03.350Z,1019.79
2017-03-13T04:06:43.942Z,1019.79
2017-03-13T04:07:24.534Z,1019.88
2017-03-13T04:08:05.151Z,1019.86
2017-03-13T04:08:45.744Z,1019.82
2017-03-13T04:09:26.321Z,1019.79
2017-03-13T04:10:06.900Z,1019.81
2017-03-13T04:10:47.493Z,1019.82
2017-03-13T04:11:28.105Z,1019.78
2017-03-13T04:12:08.700Z,1019.79
2017-03-13T04:12:49.277Z,1019.78
2017-03-13T04:13:29.867Z,1019.79
2017-03-13T04:14:10.454Z,1019.77
2017-03-13T04:14:51.061Z,1019.81
2017-03-13T04:15:31.658Z,1019.83
2017-03-13T04:16:12.254Z,1019.79
2017-03-13T04:16:52.869Z,1019.82
2017-03-13T04:17:33.441Z,1019.8
2017-03-13T04:18:14.017Z,1019.78
2017-03-13T04:18:54.673Z,1019.79
2017-03-13T04:19:35.288Z,1019.82
2017-03-13T04:20:15.948Z,1019.83
2017-03-13T04:20:56.524Z,1019.85
2017-03-13T04:21:37.147Z,1019.82
2017-03-13T04:22:17.746Z,1019.84
2017-03-13T04:22:58.344Z,1019.8
2017-03-13T04:23:38.944Z,1019.83
2017-03-13T04:24:19.529Z,1019.85
2017-03-13T04:25:00.138Z,1019.82
2017-03-13T04:25:40.711Z,1019.83
2017-03-13T04:26:21.281Z,1019.8
2017-03-13T04:27:01.896Z,1019.86
2017-03-13T04:27:42.479Z,1019.84
2017-03-13T04:28:23.099Z,1019.83
2017-03-13T04:29:03.735Z,1019.82
2017-03-13T04:29:44.391Z,1019.87
2017-03-13T04:30:24.973Z,1019.85
2017-03-13T04:31:05.574Z,1019.81
2017-03-13T04:31:46.155Z,1019.85
2017-03-13T04:32:26.762Z,1019.84
2017-03-13T04:33:07.330Z,1019.85
2017-03-13T04:33:48.004Z,1019.88
2017-03-13T04:34:28.630Z,1019.84
2017-03-13T04:35:09.230Z,1019.88
2017-03-13T04:35:49.836Z,1019.88
2017-03-13T04:36:30.464Z,1019.88
2017-03-13T04:37:11.072Z,1019.93
2017-03-13T04:37:51.681Z,1019.93
2017-03-13T04:38:32.283Z,1019.95
2017-03-13T04:39:12.863Z,1019.98
2017-03-13T04:39:53.454Z,1019.94
2017-03-13T04:40:34.090Z,1020
2017-03-13T04:41:14.689Z,1019.98
2017-03-13T04:41:55.281Z,1020
2017-03-13T04:42:35.889Z,1020.01
2017-03-13T04:43:16.542Z,1020.04
2017-03-13T04:43:57.131Z,1020.05
2017-03-13T04:44:37.752Z,1020.04
2017-03-13T04:45:18.341Z,1020.08
2017-03-13T04:45:58.953Z,1020.09
2017-03-13T04:46:39.535Z,1020.13
2017-03-13T04:47:20.169Z,1020.13
2017-03-13T04:48:00.795Z,1020.11
2017-03-13T04:48:41.396Z,1020.12
2017-03-13T04:49:22.051Z,1020.15
2017-03-13T04:50:02.651Z,1020.12
2017-03-13T04:50:43.270Z,1020.12
2017-03-13T04:51:23.860Z,1020.12
2017-03-13T04:52:04.447Z,1020.08
2017-03-13T04:52:45.046Z,1020.11
2017-03-13T04:53:25.609Z,1020.09
2017-03-13T04:54:06.207Z,1020.1
2017-03-13T04:54:46.743Z,1020.09
2017-03-13T04:55:27.327Z,1020.04
2017-03-13T04:56:07.914Z,1020.01
2017-03-13T04:56:48.487Z,1020
2017-03-13T04:57:29.059Z,1020.04
2017-03-13T04:58:09.653Z,1020.03
2017-03-13T04:58:50.214Z,1019.95
2017-03-13T04:59:30.802Z,1019.99
2017-03-13T05:00:11.362Z,1019.99
2017-03-13T05:00:51.937Z,1019.97
2017-03-13T05:01:32.517Z,1019.99
2017-03-13T05:02:13.119Z,1020.03
2017-03-13T05:02:53.699Z,1020
2017-03-13T05:03:34.279Z,1020.04
2017-03-13T05:04:14.878Z,1020.04
2017-03-13T05:04:55.451Z,1020.01
2017-03-13T05:05:36.030Z,1020.05
2017-03-13T05:06:16.600Z,1020.07
2017-03-13T05:06:57.167Z,1020.1
2017-03-13T05:07:37.738Z,1020.09
2017-03-13T05:08:18.310Z,1020.04
2017-03-13T05:08:58.887Z,1020.09
2017-03-13T05:09:39.463Z,1020.06
2017-03-13T05:10:20.049Z,1020.1
2017-03-13T05:11:00.649Z,1020.09
2017-03-13T05:11:41.236Z,1020.1
2017-03-13T05:12:21.824Z,1020.1
2017-03-13T05:13:02.404Z,1020.1
2017-03-13T05:13:43.004Z,1020.17
2017-03-13T05:14:23.575Z,1020.13
2017-03-13T05:15:04.149Z,1020.18
2017-03-13T05:15:44.722Z,1020.18
2017-03-13T05:16:25.303Z,1020.22
2017-03-13T05:17:05.950Z,1020.23
2017-03-13T05:17:46.517Z,1020.2
2017-03-13T05:18:27.124Z,1020.2
2017-03-13T05:19:07.725Z,1020.27
2017-03-13T05:19:48.344Z,1020.29
2017-03-13T05:20:28.922Z,1020.23
2017-03-13T05:21:11.283Z,1020.26
2017-03-13T05:21:51.869Z,1020.28
2017-03-13T05:22:32.450Z,1020.25
2017-03-13T05:23:13.026Z,1020.3
2017-03-13T05:23:53.595Z,1020.28
2017-03-13T05:24:34.166Z,1020.32
2017-03-13T05:25:14.735Z,1020.26
2017-03-13T05:25:55.338Z,1020.33
2017-03-13T05:26:35.922Z,1020.32
2017-03-13T05:27:16.512Z,1020.31
2017-03-13T05:27:57.112Z,1020.33
2017-03-13T05:28:37.691Z,1020.33
2017-03-13T05:29:18.277Z,1020.34
2017-03-13T05:29:58.868Z,1020.37
2017-03-13T05:30:39.445Z,1020.36
2017-03-13T05:31:20.624Z,1020.37
2017-03-13T05:32:01.203Z,1020.39
2017-03-13T05:32:41.777Z,1020.4
2017-03-13T05:33:22.395Z,1020.36
2017-03-13T05:34:02.968Z,1020.39
2017-03-13T05:34:43.542Z,1020.38
2017-03-13T05:35:24.114Z,1020.34
2017-03-13T05:36:04.687Z,1020.32
2017-03-13T05:36:45.272Z,1020.36
2017-03-13T05:37:25.846Z,1020.29
2017-03-13T05:38:06.430Z,1020.3
2017-03-13T05:38:47.049Z,1020.35
2017-03-13T05:39:27.635Z,1020.31
2017-03-13T05:40:08.243Z,1020.32
2017-03-13T05:40:48.826Z,1020.34
2017-03-13T05:41:29.455Z,1020.35
2017-03-13T05:42:10.047Z,1020.36
2017-03-13T05:42:50.624Z,1020.35
2017-03-13T05:43:31.241Z,1020.37
2017-03-13T05:44:11.813Z,1020.35
2017-03-13T05:44:52.420Z,1020.39
2017-03-13T05:45:33.015Z,1020.35
2017-03-13T05:46:13.582Z,1020.38
2017-03-13T05:46:54.161Z,1020.34
2017-03-13T05:47:34.775Z,1020.33
2017-03-13T05:48:15.372Z,1020.36
2017-03-13T05:48:55.965Z,1020.35
2017-03-13T05:49:36.538Z,1020.34
2017-03-13T05:50:17.121Z,1020.36
2017-03-13T05:50:57.725Z,1020.38
2017-03-13T05:51:38.302Z,1020.36
2017-03-13T05:52:18.868Z,1020.41
2017-03-13T05:52:59.453Z,1020.42
2017-03-13T05:53:40.039Z,1020.45
2017-03-13T05:54:20.646Z,1020.44
2017-03-13T05:55:01.230Z,1020.47
2017-03-13T05:55:41.829Z,1020.49
2017-03-13T05:59:26.824Z,1020.56
2017-03-13T06:00:07.420Z,1020.53
2017-03-13T06:00:48.035Z,1020.52
2017-03-13T06:01:28.635Z,1020.56
2017-03-13T06:02:09.260Z,1020.54
2017-03-13T06:02:49.858Z,1020.55
2017-03-13T06:03:30.466Z,1020.55
2017-03-13T06:04:11.029Z,1020.54
2017-03-13T06:04:51.614Z,1020.5
2017-03-13T06:05:32.231Z,1020.52
2017-03-13T06:06:12.808Z,1020.48
2017-03-13T06:06:53.407Z,1020.5
2017-03-13T06:07:34.000Z,1020.54
2017-03-13T06:08:14.566Z,1020.55
2017-03-13T06:08:55.149Z,1020.57
2017-03-13T06:09:35.721Z,1020.56
2017-03-13T06:10:16.302Z,1020.56
2017-03-13T06:10:56.945Z,1020.56
2017-03-13T06:11:37.540Z,1020.59
2017-03-13T06:12:18.128Z,1020.54
2017-03-13T06:12:58.742Z,1020.55
2017-03-13T06:13:39.322Z,1020.55
2017-03-13T06:14:19.904Z,1020.59
2017-03-13T06:15:00.478Z,1020.59
2017-03-13T06:15:41.083Z,1020.61
2017-03-13T06:16:21.659Z,1020.64
2017-03-13T06:17:02.226Z,1020.63
2017-03-13T06:17:42.806Z,1020.6
2017-03-13T06:18:23.392Z,1020.64
2017-03-13T06:19:03.987Z,1020.61
2017-03-13T06:19:44.587Z,1020.66
2017-03-13T06:20:25.181Z,1020.6
2017-03-13T06:21:05.789Z,1020.64
2017-03-13T06:21:46.370Z,1020.62
2017-03-13T06:22:26.995Z,1020.6
2017-03-13T06:23:07.565Z,1020.63
2017-03-13T06:23:48.137Z,1020.62
2017-03-13T06:24:28.721Z,1020.62
2017-03-13T06:25:09.310Z,1020.62
2017-03-13T06:25:49.912Z,1020.66
2017-03-13T06:26:30.502Z,1020.65
2017-03-13T06:27:11.073Z,1020.64
2017-03-13T06:27:51.654Z,1020.7
2017-03-13T06:28:32.273Z,1020.67
2017-03-13T06:29:12.865Z,1020.73
2017-03-13T06:29:53.462Z,1020.72
2017-03-13T06:30:34.091Z,1020.7
2017-03-13T06:31:14.682Z,1020.72
2017-03-13T06:31:55.266Z,1020.77
2017-03-13T06:32:35.932Z,1020.78
2017-03-13T06:33:16.554Z,1020.77
2017-03-13T06:33:57.152Z,1020.79
2017-03-13T06:34:37.751Z,1020.83
2017-03-13T06:35:18.361Z,1020.82
2017-03-13T06:35:59.042Z,1020.82
2017-03-13T06:36:39.617Z,1020.85
2017-03-13T06:37:20.192Z,1020.86
2017-03-13T06:38:00.813Z,1020.92
2017-03-13T06:38:41.412Z,1020.88
2017-03-13T06:39:22.084Z,1020.91
2017-03-13T06:40:02.677Z,1020.86
2017-03-13T06:40:43.281Z,1020.87
2017-03-13T06:41:23.865Z,1020.91
2017-03-13T06:42:04.468Z,1020.9
2017-03-13T06:42:45.047Z,1020.92
2017-03-13T06:43:25.626Z,1020.93
2017-03-13T06:44:06.218Z,1020.94
2017-03-13T06:44:46.825Z,1020.93
2017-03-13T06:45:27.439Z,1020.96
2017-03-13T06:46:08.063Z,1020.95
2017-03-13T06:46:48.685Z,1021
2017-03-13T06:47:29.287Z,1020.97
2017-03-13T06:48:09.879Z,1020.98
2017-03-13T06:48:50.458Z,1020.99
2017-03-13T06:49:31.027Z,1021.06
2017-03-13T06:50:11.596Z,1021.05
2017-03-13T06:50:52.194Z,1021.03
2017-03-13T06:51:32.777Z,1021.05
2017-03-13T06:52:13.342Z,1021.08
2017-03-13T06:52:53.921Z,1021.04
2017-03-13T06:53:34.549Z,1021.1
2017-03-13T06:54:15.149Z,1021.12
2017-03-13T06:54:55.744Z,1021.17
2017-03-13T06:55:36.390Z,1021.13
2017-03-13T06:56:16.987Z,1021.13
2017-03-13T06:56:57.573Z,1021.14
2017-03-13T06:57:38.194Z,1021.11
2017-03-13T06:58:19.148Z,1021.12
2017-03-13T06:58:59.752Z,1021.11
2017-03-13T06:59:40.354Z,1021.12
2017-03-13T07:00:20.950Z,1021.15
2017-03-13T07:01:01.525Z,1021.13
2017-03-13T07:01:42.100Z,1021.12
2017-03-13T07:02:22.687Z,1021.14
2017-03-13T07:03:03.262Z,1021.13
2017-03-13T07:03:43.885Z,1021.14
2017-03-13T07:04:24.496Z,1021.14
2017-03-13T07:05:05.153Z,1021.14
2017-03-13T07:05:45.770Z,1021.14
2017-03-13T07:06:26.387Z,1021.09
2017-03-13T07:07:06.983Z,1021.1
2017-03-13T07:07:47.592Z,1021.12
2017-03-13T07:08:28.181Z,1021.09
2017-03-13T07:09:08.858Z,1021.16
2017-03-13T07:09:49.435Z,1021.09
2017-03-13T07:10:30.016Z,1021.11
2017-03-13T07:11:11.040Z,1021.1
2017-03-13T07:11:51.661Z,1021.08
2017-03-13T07:12:32.238Z,1021.1
2017-03-13T07:13:12.810Z,1021.08
2017-03-13T07:13:53.409Z,1021.09
2017-03-13T07:14:34.238Z,1021.1
2017-03-13T07:15:14.687Z,1021.13
2017-03-13T07:15:55.297Z,1021.13
2017-03-13T07:16:35.945Z,1021.11
2017-03-13T07:17:16.528Z,1021.15
2017-03-13T07:17:57.131Z,1021.13
2017-03-13T07:18:37.724Z,1021.15
2017-03-13T07:19:18.351Z,1021.13
2017-03-13T07:19:58.971Z,1021.13
2017-03-13T07:20:39.575Z,1021.15
2017-03-13T07:21:20.184Z,1021.15
2017-03-13T07:22:00.819Z,1021.18
2017-03-13T07:22:41.407Z,1021.2
2017-03-13T07:23:22.009Z,1021.2
2017-03-13T07:24:02.592Z,1021.24
2017-03-13T07:24:43.174Z,1021.26
2017-03-13T07:25:23.766Z,1021.29
2017-03-13T07:26:04.359Z,1021.23
2017-03-13T07:26:44.950Z,1021.24
2017-03-13T07:27:25.564Z,1021.28
2017-03-13T07:28:06.161Z,1021.29
2017-03-13T07:28:46.764Z,1021.25
2017-03-13T07:29:27.359Z,1021.3
2017-03-13T07:30:07.931Z,1021.27
2017-03-13T07:30:48.555Z,1021.29
2017-03-13T07:31:29.168Z,1021.34
2017-03-13T07:32:09.765Z,1021.42
2017-03-13T07:32:50.351Z,1021.43
2017-03-13T07:33:30.935Z,1021.48
2017-03-13T07:34:11.514Z,1021.53
2017-03-13T07:34:52.113Z,1021.56
2017-03-13T07:35:32.761Z,1021.6
2017-03-13T07:36:13.351Z,1021.58
2017-03-13T07:36:53.928Z,1021.7
2017-03-13T07:37:34.538Z,1021.8
2017-03-13T07:38:15.229Z,1021.79
2017-03-13T07:38:55.779Z,1021.77
2017-03-13T07:39:36.368Z,1021.83
2017-03-13T07:40:16.994Z,1021.47
2017-03-13T07:40:57.599Z,1021.4
2017-03-13T07:41:38.264Z,1021.43
2017-03-13T07:42:18.862Z,1021.56
2017-03-13T07:42:59.445Z,1021.63
2017-03-13T07:43:40.052Z,1021.7
2017-03-13T07:44:20.631Z,1021.67
2017-03-13T07:45:01.227Z,1021.66
2017-03-13T07:45:41.828Z,1021.72
2017-03-13T07:46:22.389Z,1021.64
2017-03-13T07:47:02.968Z,1021.42
2017-03-13T07:47:43.556Z,1021.53
2017-03-13T07:48:24.145Z,1021.57
2017-03-13T07:49:04.738Z,1021.63
2017-03-13T07:49:45.324Z,1021.57
2017-03-13T07:50:25.946Z,1021.49
2017-03-13T07:51:06.553Z,1021.47
2017-03-13T07:51:47.166Z,1021.48
2017-03-13T07:52:27.769Z,1021.5
2017-03-13T07:53:08.398Z,1021.47
2017-03-13T07:53:48.998Z,1021.48
2017-03-13T07:54:29.583Z,1021.43
2017-03-13T07:55:10.163Z,1021.41
2017-03-13T07:55:50.755Z,1021.42
2017-03-13T07:56:31.369Z,1021.43
2017-03-13T07:57:11.957Z,1021.47
2017-03-13T07:57:52.591Z,1021.47
2017-03-13T07:58:33.139Z,1021.52
2017-03-13T07:59:13.764Z,1021.54
2017-03-13T07:59:54.377Z,1021.54
2017-03-13T08:00:34.962Z,1021.51
2017-03-13T08:01:15.541Z,1021.51
2017-03-13T08:01:56.125Z,1021.53
2017-03-13T08:02:36.710Z,1021.55
2017-03-13T08:03:17.283Z,1021.54
2017-03-13T08:03:57.857Z,1021.56
2017-03-13T08:04:39.307Z,1021.61
2017-03-13T08:05:19.881Z,1021.56
2017-03-13T08:06:00.472Z,1021.58
2017-03-13T08:06:41.041Z,1021.53
2017-03-13T08:07:21.620Z,1021.53
2017-03-13T08:08:02.202Z,1021.52
2017-03-13T08:08:42.786Z,1021.54
2017-03-13T08:09:23.371Z,1021.61
2017-03-13T08:10:03.966Z,1021.61
2017-03-13T08:10:44.572Z,1021.59
2017-03-13T08:11:25.185Z,1021.58
2017-03-13T08:12:05.761Z,1021.59
2017-03-13T08:12:46.366Z,1021.67
2017-03-13T08:13:26.977Z,1021.58
2017-03-13T08:14:07.599Z,1021.52
2017-03-13T08:14:48.176Z,1021.5
2017-03-13T08:15:28.792Z,1021.46
2017-03-13T08:16:09.384Z,1021.52